createdAt,value
2023-04-29T04:17:22.053Z,59.15
2023-04-29T04:19:50.305Z,58.78
2023-04-29T04:22:18.737Z,58.81
2023-04-29T04:24:46.783Z,59.17
2023-04-29T04:27:14.800Z,58.75
2023-04-29T04:29:42.892Z,58.38
2023-04-29T04:32:10.796Z,58.71
2023-04-29T04:34:41.140Z,58.67
2023-04-29T04:37:09.398Z,58.97
2023-04-29T04:44:24.188Z,58.28
2023-04-29T04:47:37.024Z,58.47
2023-04-29T04:53:19.741Z,58.75
2023-04-29T04:58:34.650Z,59.02
2023-04-29T05:01:21.394Z,59.11
2023-04-29T05:03:49.461Z,58.69
2023-04-29T05:06:19.139Z,59.11
2023-04-29T05:08:47.058Z,58.92
2023-04-29T05:11:19.482Z,58.58
2023-04-29T05:13:47.193Z,58.85
2023-04-29T05:16:15.034Z,58.93
2023-04-29T05:18:45.161Z,58.42
2023-04-29T05:21:12.996Z,58.68
2023-04-29T05:23:43.324Z,58.42
2023-04-29T05:26:11.029Z,58.52
2023-04-29T05:28:38.848Z,58.29
2023-04-29T05:31:06.930Z,58.43
2023-04-29T05:33:34.892Z,59.21
2023-04-29T05:36:02.773Z,58.62
2023-04-29T05:38:30.889Z,58.31
2023-04-29T05:41:00.061Z,58.37
2023-04-29T05:43:28.067Z,58.51
2023-04-29T05:45:55.862Z,58.64
2023-04-29T05:48:25.342Z,58.68
2023-04-29T05:50:53.914Z,58.16
2023-04-29T05:53:21.811Z,58.66
2023-04-29T05:55:51.232Z,58.16
2023-04-29T05:58:20.673Z,58.52
2023-04-29T06:00:49.541Z,58.06
2023-04-29T06:03:18.222Z,58.27
2023-04-29T06:05:47.748Z,57.63
2023-04-29T06:08:15.666Z,58.37
2023-04-29T06:10:43.512Z,57.80
2023-04-29T06:13:11.317Z,57.78
2023-04-29T06:15:41.806Z,58.32
2023-04-29T06:18:09.628Z,58.04
2023-04-29T06:20:37.722Z,57.81
2023-04-29T06:23:06.135Z,57.79
2023-04-29T06:25:34.257Z,57.80
2023-04-29T06:28:02.318Z,57.93
2023-04-29T06:30:30.214Z,57.38
2023-04-29T06:32:59.536Z,57.08
2023-04-29T06:35:29.250Z,57.50
2023-04-29T06:37:57.098Z,56.86
2023-04-29T06:40:24.895Z,56.79
2023-04-29T06:42:53.157Z,56.68
2023-04-29T06:45:20.917Z,56.47
2023-04-29T06:47:48.733Z,56.14
2023-04-29T06:50:20.650Z,56.64
2023-04-29T06:52:49.276Z,56.09
2023-04-29T06:55:17.351Z,55.93
2023-04-29T06:57:46.325Z,55.97
2023-04-29T07:00:15.883Z,55.95
2023-04-29T07:02:43.784Z,55.83
2023-04-29T07:05:12.175Z,55.52
2023-04-29T07:07:45.563Z,55.59
2023-04-29T07:10:13.609Z,55.57
2023-04-29T07:12:41.673Z,55.32
2023-04-29T07:15:10.645Z,55.09
2023-04-29T07:17:38.613Z,54.91
2023-04-29T07:20:07.691Z,54.72
2023-04-29T07:22:35.567Z,54.85
2023-04-29T07:25:05.020Z,55.12
2023-04-29T07:27:35.295Z,54.62
2023-04-29T07:30:03.403Z,55.04
2023-04-29T07:32:31.699Z,54.85
2023-04-29T07:34:59.606Z,54.67
2023-04-29T07:37:27.745Z,54.82
2023-04-29T07:39:58.140Z,54.34
2023-04-29T07:42:28.268Z,54.90
2023-04-29T07:44:56.232Z,54.69
2023-04-29T07:47:27.218Z,54.56
2023-04-29T07:49:55.053Z,54.87
2023-04-29T07:52:23.205Z,54.97
2023-04-29T07:54:51.220Z,54.93
2023-04-29T07:57:19.496Z,54.86
2023-04-29T07:59:48.817Z,54.64
2023-04-29T08:02:16.777Z,54.95
2023-04-29T08:04:45.319Z,54.61
2023-04-29T08:07:14.846Z,54.68
2023-04-29T08:09:44.279Z,54.18
2023-04-29T08:12:12.418Z,54.28
2023-04-29T08:14:43.128Z,54.41
2023-04-29T08:17:12.322Z,54.69
2023-04-29T08:19:41.021Z,54.22
2023-04-29T08:22:11.221Z,54.29
2023-04-29T08:24:39.155Z,55.07
2023-04-29T08:27:06.937Z,54.76
2023-04-29T08:29:34.866Z,54.77
2023-04-29T08:32:02.810Z,54.95
2023-04-29T08:34:33.478Z,55.70
2023-04-29T08:37:01.313Z,55.46
2023-04-29T08:39:29.724Z,55.74
2023-04-29T08:41:57.920Z,55.61
2023-04-29T08:44:26.987Z,55.55
2023-04-29T08:46:54.863Z,55.37
2023-04-29T08:49:23.205Z,55.60
2023-04-29T08:51:52.516Z,55.81
2023-04-29T08:54:31.058Z,55.57
2023-04-29T08:56:59.265Z,55.36
2023-04-29T08:59:27.008Z,55.35
2023-04-29T09:01:55.006Z,55.68
2023-04-29T09:04:30.017Z,55.42
2023-04-29T09:06:59.192Z,55.71
2023-04-29T09:09:28.370Z,55.53
2023-04-29T09:11:56.234Z,55.43
2023-04-29T09:14:24.356Z,56.13
2023-04-29T09:16:52.690Z,56.21
2023-04-29T09:19:33.697Z,56.21
2023-04-29T09:22:04.520Z,56.28
2023-04-29T09:24:32.708Z,56.14
2023-04-29T09:27:00.479Z,56.21
2023-04-29T09:29:28.357Z,56.71
2023-04-29T09:31:58.511Z,56.61
2023-04-29T09:34:35.604Z,56.76
2023-04-29T09:37:05.325Z,56.55
2023-04-29T09:39:39.722Z,56.42
2023-04-29T09:42:08.974Z,56.51
2023-04-29T09:44:42.449Z,57.28
2023-04-29T09:47:10.865Z,57.05
2023-04-29T09:49:41.145Z,56.77
2023-04-29T09:52:11.091Z,57.22
2023-04-29T09:54:39.755Z,57.12
2023-04-29T09:57:08.107Z,57.21
2023-04-29T09:59:37.645Z,57.50
2023-04-29T10:02:09.397Z,57.28
2023-04-29T10:04:39.592Z,57.16
2023-04-29T10:07:07.906Z,57.10
2023-04-29T10:09:37.117Z,57.31
2023-04-29T10:12:05.291Z,57.34
2023-04-29T10:14:33.027Z,56.99
2023-04-29T10:17:02.726Z,56.91
2023-04-29T10:19:35.768Z,56.76
2023-04-29T10:22:11.343Z,56.78
2023-04-29T10:24:41.384Z,56.91
2023-04-29T10:27:12.262Z,56.57
2023-04-29T10:29:40.152Z,56.60
2023-04-29T10:32:10.012Z,56.81
2023-04-29T10:34:38.888Z,56.81
2023-04-29T10:37:12.719Z,56.41
2023-04-29T10:39:45.019Z,56.67
2023-04-29T10:42:18.464Z,56.27
2023-04-29T10:45:20.126Z,56.20
2023-04-29T10:48:09.830Z,56.33
2023-04-29T10:50:43.306Z,56.60
2023-04-29T10:53:11.125Z,56.41
2023-04-29T11:16:34.691Z,55.74
2023-04-29T12:01:36.807Z,49.49
2023-04-29T12:04:05.878Z,48.63
2023-04-29T12:06:36.493Z,48.56
2023-04-29T12:09:05.542Z,47.74
2023-04-29T12:11:35.656Z,46.72
2023-04-29T12:14:06.614Z,46.41
2023-04-29T12:16:37.511Z,45.40
2023-04-29T14:21:39.563Z,43.59
2023-04-29T15:23:34.071Z,44.41
2023-04-29T15:26:35.609Z,44.39
2023-04-29T15:30:06.381Z,44.32
2023-04-29T15:32:34.425Z,44.12
2023-04-29T15:35:03.141Z,43.69
2023-04-29T15:37:40.976Z,43.57
2023-04-29T15:40:11.231Z,43.30
2023-04-29T15:42:43.231Z,43.33
2023-04-29T15:45:13.025Z,43.03
2023-04-29T15:47:42.116Z,42.86
2023-04-29T15:50:11.702Z,42.81
2023-04-29T15:52:41.237Z,42.38
2023-04-29T15:55:10.264Z,42.70
2023-04-29T15:57:41.449Z,42.60
2023-04-29T16:00:13.060Z,42.54
2023-04-29T16:02:41.168Z,42.59
2023-04-29T16:05:09.731Z,41.69
2023-04-29T16:07:37.719Z,41.05
2023-04-29T16:10:06.054Z,41.38
2023-04-29T16:12:34.060Z,41.21
2023-04-29T16:15:01.774Z,40.93
2023-04-29T16:17:34.038Z,41.00
2023-04-29T16:20:02.052Z,40.60
2023-04-29T16:22:31.240Z,40.54
2023-04-29T16:24:59.280Z,40.17
2023-04-29T16:27:27.330Z,40.75
2023-04-29T16:29:55.980Z,40.73
2023-04-29T16:32:24.021Z,40.59
2023-04-29T16:34:53.783Z,40.79
2023-04-29T16:37:22.188Z,40.30
2023-04-29T16:39:50.059Z,41.06
2023-04-29T16:42:19.696Z,41.15
2023-04-29T16:44:47.938Z,41.15
2023-04-29T16:47:15.840Z,41.02
2023-04-29T16:49:43.854Z,41.10
2023-04-29T16:52:14.587Z,41.42
2023-04-29T16:54:42.657Z,41.52
2023-04-29T16:57:21.703Z,41.63
2023-04-29T16:59:52.023Z,42.00
2023-04-29T17:02:20.044Z,41.95
2023-04-29T17:04:48.032Z,41.55
2023-04-29T17:07:19.858Z,42.04
2023-04-29T17:09:48.515Z,41.86
2023-04-29T17:12:16.764Z,42.18
2023-04-29T17:14:45.235Z,42.40
2023-04-29T17:17:13.102Z,42.27
2023-04-29T17:19:40.926Z,42.28
2023-04-29T17:22:10.068Z,42.42
2023-04-29T17:24:40.525Z,42.76
2023-04-29T17:27:08.898Z,42.93
2023-04-29T17:29:36.727Z,43.10
2023-04-29T17:32:10.864Z,43.10
2023-04-29T17:34:39.476Z,43.02
2023-04-29T17:37:07.988Z,43.16
2023-04-29T17:39:36.474Z,43.28
2023-04-29T17:42:06.856Z,43.15
2023-04-29T17:44:37.872Z,42.95
2023-04-29T17:47:11.354Z,43.24
2023-04-29T17:49:54.303Z,43.35
2023-04-29T17:52:37.944Z,43.69
2023-04-29T17:55:06.522Z,43.64
2023-04-29T18:29:53.255Z,44.76
2023-04-29T18:32:22.528Z,44.89
2023-04-29T18:34:51.598Z,44.69
